createdAt,value
2019-05-12T00:00:29.469Z,100827.14
2019-05-12T00:02:59.288Z,100828.93
2019-05-12T00:05:27.945Z,100833.11
2019-05-12T00:07:55.954Z,100832.06
2019-05-12T00:10:23.720Z,100829.06
2019-05-12T00:12:51.534Z,100838.64
2019-05-12T00:15:19.730Z,100837.69
2019-05-12T00:17:48.306Z,100841.27
2019-05-12T00:20:18.211Z,100845.11
2019-05-12T00:22:49.295Z,100851.13
2019-05-12T00:25:18.221Z,100846.91
2019-05-12T00:27:48.462Z,100849.69
2019-05-12T00:30:38.473Z,100862.83
2019-05-12T00:33:08.919Z,100866.66
2019-05-12T00:35:38.042Z,100868.80
2019-05-12T00:38:05.672Z,100873.53
2019-05-12T00:40:33.531Z,100877.91
2019-05-12T00:43:01.331Z,100877.85
2019-05-12T00:45:29.574Z,100884.61
2019-05-12T00:47:58.329Z,100891.08
2019-05-12T00:50:28.643Z,100895.80
2019-05-12T00:52:57.946Z,100909.38
2019-05-12T00:55:25.826Z,100906.52
2019-05-12T00:57:53.584Z,100905.42
2019-05-12T01:00:21.484Z,100910.67
2019-05-12T01:02:49.257Z,100915.34
2019-05-12T01:05:17.743Z,100920.59
2019-05-12T01:07:45.557Z,100918.01
2019-05-12T01:10:13.453Z,100929.14
2019-05-12T01:12:41.350Z,100928.05
2019-05-12T01:15:09.620Z,100929.03
2019-05-12T01:17:38.402Z,100937.09
2019-05-12T01:20:09.037Z,100938.98
2019-05-12T01:22:38.223Z,100938.74
2019-05-12T01:25:08.555Z,100939.13
2019-05-12T01:27:38.136Z,100946.39
2019-05-12T01:30:08.722Z,100949.45
2019-05-12T01:32:38.383Z,100950.86
2019-05-12T01:35:08.154Z,100947.30
2019-05-12T01:37:38.355Z,100948.34
2019-05-12T01:40:09.190Z,100953.27
2019-05-12T01:42:38.205Z,100956.21
2019-05-12T01:45:09.227Z,100961.83
2019-05-12T01:47:38.253Z,100969.59
2019-05-12T01:50:09.197Z,100967.89
2019-05-12T01:52:38.591Z,100967.89
2019-05-12T01:55:08.188Z,100973.38
2019-05-12T01:57:38.573Z,100974.16
2019-05-12T02:00:09.036Z,100974.48
2019-05-12T02:02:38.601Z,100972.23
2019-05-12T02:05:08.968Z,100980.73
2019-05-12T02:07:48.988Z,100980.39
2019-05-12T02:10:18.108Z,100977.92
2019-05-12T02:12:46.043Z,100991.88
2019-05-12T02:15:18.399Z,100995.17
2019-05-12T02:17:48.119Z,100985.30
2019-05-12T02:20:18.062Z,100989.98
2019-05-12T02:22:47.734Z,101000.22
2019-05-12T02:25:18.395Z,101004.21
2019-05-12T02:27:47.609Z,101009.78
2019-05-12T02:30:20.292Z,101013.17
2019-05-12T02:32:53.098Z,101006.37
2019-05-12T02:35:16.605Z,101010.88
2019-05-12T02:37:45.187Z,101013.11
2019-05-12T02:40:15.068Z,101017.97
2019-05-12T02:42:46.279Z,101022.50
2019-05-12T02:45:15.716Z,101025.08
2019-05-12T02:47:45.663Z,101030.64
2019-05-12T02:50:17.317Z,101035.09
2019-05-12T02:52:45.484Z,101033.55
2019-05-12T02:55:14.997Z,101041.45
2019-05-12T02:57:45.220Z,101041.81
2019-05-12T03:00:15.939Z,101042.67
2019-05-12T03:02:46.146Z,101046.34
2019-05-12T03:05:14.901Z,101047.44
2019-05-12T03:07:45.781Z,101054.02
2019-05-12T03:10:14.578Z,101058.49
2019-05-12T03:12:44.971Z,101051.91
2019-05-12T03:15:15.221Z,101055.54
2019-05-12T03:17:44.310Z,101057.24
2019-05-12T03:20:15.033Z,101057.03
2019-05-12T03:22:44.542Z,101053.67
2019-05-12T03:25:20.832Z,101059.55
2019-05-12T03:27:44.216Z,101062.23
2019-05-12T03:30:12.470Z,101067.04
2019-05-12T03:32:40.394Z,101070.19
2019-05-12T03:35:09.246Z,101077.09
2019-05-12T03:37:37.439Z,101078.83
2019-05-12T03:40:05.952Z,101080.44
2019-05-12T03:42:35.398Z,101081.92
2019-05-12T03:45:04.827Z,101079.95
2019-05-12T03:47:35.527Z,101081.86
2019-05-12T03:50:04.653Z,101096.73
2019-05-12T03:52:34.919Z,101089.78
2019-05-12T03:55:04.984Z,101100.90
2019-05-12T03:57:34.289Z,101099.37
2019-05-12T04:00:01.131Z,101111.52
2019-05-12T04:02:28.890Z,101105.70
2019-05-12T04:04:56.677Z,101120.98
2019-05-12T04:07:24.551Z,101125.48
2019-05-12T04:09:54.629Z,101138.97
2019-05-12T04:12:25.177Z,101153.11
2019-05-12T04:14:54.850Z,101148.23
2019-05-12T04:17:24.212Z,101157.82
2019-05-12T04:19:51.054Z,101163.35
2019-05-12T04:22:18.822Z,101168.85
2019-05-12T04:24:46.573Z,101168.85
2019-05-12T04:27:15.223Z,101174.77
2019-05-12T04:29:44.136Z,101174.02
2019-05-12T04:32:14.394Z,101181.61
2019-05-12T04:34:44.549Z,101186.72
2019-05-12T04:37:14.566Z,101200.36
2019-05-12T04:39:41.165Z,101211.28
2019-05-12T04:42:08.900Z,101209.38
2019-05-12T04:44:36.968Z,101220.13
2019-05-12T04:47:07.773Z,101228.09
2019-05-12T04:49:35.609Z,101235.56
2019-05-12T04:52:05.308Z,101242.38
2019-05-12T04:54:35.543Z,101249.31
2019-05-12T04:57:04.161Z,101243.06
2019-05-12T04:59:34.521Z,101249.51
2019-05-12T05:02:05.186Z,101259.47
2019-05-12T05:04:34.530Z,101262.23
2019-05-12T05:07:04.307Z,101268.02
2019-05-12T05:09:30.984Z,101275.88
2019-05-12T05:11:58.799Z,101270.58
2019-05-12T05:14:26.598Z,101272.42
2019-05-12T05:16:54.506Z,101276.56
2019-05-12T05:19:24.337Z,101284.70
2019-05-12T05:21:54.186Z,101293.71
2019-05-12T05:24:23.522Z,101294.50
2019-05-12T05:26:53.773Z,101291.69
2019-05-12T05:29:21.148Z,101299.00
2019-05-12T05:31:49.009Z,101308.70
2019-05-12T05:34:16.866Z,101320.25
2019-05-12T05:36:44.767Z,101325.40
2019-05-12T05:39:13.938Z,101327.33
2019-05-12T05:41:46.605Z,101327.81
2019-05-12T05:44:13.799Z,101333.39
2019-05-12T05:46:47.717Z,101336.44
2019-05-12T05:49:13.186Z,101339.98
2019-05-12T05:51:46.190Z,101337.97
2019-05-12T05:54:10.409Z,101347.39
2019-05-12T05:56:42.647Z,101347.98
2019-05-12T05:59:08.291Z,101358.93
2019-05-12T06:01:40.075Z,101373.17
2019-05-12T06:04:08.645Z,101371.33
2019-05-12T06:06:35.551Z,101378.33
2019-05-12T06:09:05.963Z,101382.89
2019-05-12T06:11:34.524Z,101389.52
2019-05-12T06:14:11.130Z,101397.91
2019-05-12T06:16:34.067Z,101400.60
2019-05-12T06:19:03.508Z,101400.54
2019-05-12T06:21:34.759Z,101410.20
2019-05-12T06:24:03.347Z,101417.16
2019-05-12T06:26:33.310Z,101413.64
2019-05-12T06:29:00.522Z,101416.75
2019-05-12T06:31:29.806Z,101416.94
2019-05-12T06:33:57.957Z,101425.78
2019-05-12T06:36:27.378Z,101427.18
2019-05-12T06:38:55.357Z,101423.52
2019-05-12T06:41:25.723Z,101429.38
2019-05-12T06:43:56.090Z,101435.06
2019-05-12T06:46:25.877Z,101436.41
2019-05-12T06:48:54.366Z,101436.84
2019-05-12T06:51:25.452Z,101443.71
2019-05-12T06:53:53.445Z,101443.08
2019-05-12T06:56:23.479Z,101444.41
2019-05-12T06:58:53.341Z,101443.20
2019-05-12T07:01:20.905Z,101440.00
2019-05-12T07:03:48.805Z,101439.70
2019-05-12T07:06:19.674Z,101446.45
2019-05-12T07:08:46.255Z,101451.45
2019-05-12T07:11:14.426Z,101458.41
2019-05-12T07:13:43.627Z,101450.91
2019-05-12T07:16:21.824Z,101455.69
2019-05-12T07:18:46.501Z,101446.95
2019-05-12T07:21:17.869Z,101451.13
2019-05-12T07:23:44.468Z,101454.67
2019-05-12T07:26:17.861Z,101453.05
2019-05-12T07:28:43.351Z,101454.20
2019-05-12T07:31:11.394Z,101458.34
2019-05-12T07:33:41.843Z,101467.73
2019-05-12T07:36:13.617Z,101463.09
2019-05-12T07:38:46.313Z,101473.05
2019-05-12T07:41:14.545Z,101473.14
2019-05-12T07:43:44.870Z,101485.42
2019-05-12T07:46:13.589Z,101478.46
2019-05-12T07:48:46.562Z,101482.18
2019-05-12T07:51:11.018Z,101481.52
2019-05-12T07:53:38.784Z,101476.67
2019-05-12T07:56:06.593Z,101483.66
2019-05-12T07:58:34.362Z,101488.78
2019-05-12T08:01:05.005Z,101484.00
2019-05-12T08:03:34.395Z,101490.09
2019-05-12T08:06:04.389Z,101480.84
2019-05-12T08:08:31.336Z,101480.71
2019-05-12T08:10:59.106Z,101489.64
2019-05-12T08:13:31.163Z,101483.59
2019-05-12T08:15:56.744Z,101495.90
2019-05-12T08:18:24.785Z,101496.77
2019-05-12T08:20:53.881Z,101501.40
2019-05-12T08:23:23.462Z,101494.66
2019-05-12T08:25:53.404Z,101500.81
2019-05-12T08:28:27.899Z,101498.25
2019-05-12T08:30:54.841Z,101499.88
2019-05-12T08:33:23.901Z,101513.09
2019-05-12T08:35:51.791Z,101509.34
2019-05-12T08:38:19.581Z,101518.25
2019-05-12T08:40:50.985Z,101536.73
2019-05-12T08:43:17.157Z,101534.97
2019-05-12T08:45:44.928Z,101533.08
2019-05-12T08:48:17.077Z,101544.82
2019-05-12T08:50:45.797Z,101542.92
2019-05-12T08:53:20.299Z,101546.17
2019-05-12T08:55:43.700Z,101547.48
2019-05-12T08:58:28.217Z,101553.18
2019-05-12T09:00:46.574Z,101553.66
2019-05-12T09:03:13.699Z,101558.27
2019-05-12T09:05:41.615Z,101553.67
2019-05-12T09:08:10.012Z,101551.18
2019-05-12T09:10:37.840Z,101553.77
2019-05-12T09:13:05.690Z,101548.29
2019-05-12T09:15:34.704Z,101543.61
2019-05-12T09:18:04.755Z,101551.55
2019-05-12T09:20:33.163Z,101551.55
2019-05-12T09:23:02.743Z,101542.86
2019-05-12T09:25:30.949Z,101557.41
2019-05-12T09:27:58.804Z,101561.67
2019-05-12T09:30:28.536Z,101549.35
2019-05-12T09:32:56.482Z,101545.41
2019-05-12T09:35:28.724Z,101551.75
2019-05-12T09:37:54.093Z,101540.50
2019-05-12T09:40:22.660Z,101541.52
2019-05-12T09:42:53.312Z,101546.47
2019-05-12T09:45:21.226Z,101549.90
2019-05-12T09:47:49.006Z,101558.91
2019-05-12T09:50:20.342Z,101556.27
2019-05-12T09:52:51.127Z,101554.45
2019-05-12T09:55:16.525Z,101553.08
2019-05-12T09:57:45.116Z,101546.11
2019-05-12T10:00:14.052Z,101558.66
2019-05-12T10:02:43.620Z,101553.56
2019-05-12T10:05:14.219Z,101560.44
2019-05-12T10:07:41.441Z,101553.91
2019-05-12T10:10:09.863Z,101551.77
2019-05-12T10:12:45.120Z,101558.86
2019-05-12T10:15:08.435Z,101562.21
2019-05-12T10:17:36.220Z,101565.31
2019-05-12T10:20:04.735Z,101551.23
2019-05-12T10:22:39.970Z,101556.50
2019-05-12T10:25:07.721Z,101559.36
2019-05-12T10:27:35.731Z,101559.99
2019-05-12T10:30:11.972Z,101561.37
2019-05-12T10:32:34.893Z,101564.96
2019-05-12T10:35:04.019Z,101566.90
2019-05-12T10:37:31.873Z,101570.16
2019-05-12T10:39:59.702Z,101573.41
2019-05-12T10:42:27.529Z,101563.17
2019-05-12T10:44:56.718Z,101576.75
2019-05-12T10:47:24.797Z,101579.94
2019-05-12T10:49:53.774Z,101571.39
2019-05-12T10:52:21.695Z,101567.42
2019-05-12T10:54:50.784Z,101562.14
2019-05-12T10:57:18.650Z,101567.12
2019-05-12T10:59:48.574Z,101566.17
2019-05-12T11:02:20.301Z,101573.27
2019-05-12T11:04:45.984Z,101569.71
2019-05-12T11:07:13.850Z,101562.60
2019-05-12T11:09:43.558Z,101569.67
2019-05-12T11:12:13.738Z,101580.16
2019-05-12T11:14:43.375Z,101579.23
2019-05-12T11:17:13.827Z,101582.94
2019-05-12T11:19:49.283Z,101592.20
2019-05-12T11:22:13.768Z,101588.23
2019-05-12T11:24:41.236Z,101576.16
2019-05-12T11:27:09.080Z,101584.19
2019-05-12T11:29:46.195Z,101586.58
2019-05-12T11:32:06.686Z,101573.50
2019-05-12T11:34:34.527Z,101583.12
2019-05-12T11:37:03.453Z,101583.80
2019-05-12T11:39:37.198Z,101579.72
2019-05-12T11:42:01.070Z,101588.59
2019-05-12T11:44:28.925Z,101576.95
2019-05-12T11:46:56.746Z,101583.89
2019-05-12T11:49:26.470Z,101587.98
2019-05-12T11:51:54.555Z,101592.02
2019-05-12T11:54:24.274Z,101592.84
2019-05-12T11:56:53.498Z,101587.84
2019-05-12T11:59:23.612Z,101598.31
2019-05-12T12:01:54.000Z,101596.09
2019-05-12T12:04:21.030Z,101601.61
2019-05-12T12:06:48.856Z,101602.09
2019-05-12T12:09:18.815Z,101602.25
2019-05-12T12:11:46.357Z,101605.66
2019-05-12T12:14:14.449Z,101596.16
2019-05-12T12:16:50.114Z,101602.36
2019-05-12T12:19:12.098Z,101601.52
2019-05-12T12:21:40.409Z,101611.23
2019-05-12T12:24:09.841Z,101612.17
2019-05-12T12:26:37.753Z,101607.98
2019-05-12T12:29:05.581Z,101619.84
2019-05-12T12:32:02.047Z,101612.24
2019-05-12T12:34:30.551Z,101614.11
2019-05-12T12:36:58.455Z,101623.87
2019-05-12T12:39:26.209Z,101618.86
2019-05-12T12:42:00.166Z,101622.69
2019-05-12T12:44:24.286Z,101624.02
2019-05-12T12:46:59.840Z,101624.64
2019-05-12T12:49:23.372Z,101628.86
2019-05-12T12:51:51.291Z,101628.59
2019-05-12T12:54:19.217Z,101636.87
2019-05-12T12:56:47.037Z,101648.64
2019-05-12T12:59:14.955Z,101638.05
2019-05-12T13:01:44.253Z,101641.50
2019-05-12T13:04:13.301Z,101639.91
2019-05-12T13:06:43.589Z,101640.50
2019-05-12T13:09:18.219Z,101645.55
2019-05-12T13:11:40.617Z,101637.05
2019-05-12T13:14:08.447Z,101643.12
2019-05-12T13:16:37.609Z,101634.02
2019-05-12T13:19:12.184Z,101644.59
2019-05-12T13:21:35.294Z,101652.92
2019-05-12T13:24:03.650Z,101645.33
2019-05-12T13:26:31.549Z,101647.14
2019-05-12T13:29:00.605Z,101661.44
2019-05-12T13:31:28.396Z,101649.47
2019-05-12T13:33:56.603Z,101640.34
2019-05-12T13:36:29.315Z,101652.88
2019-05-12T13:38:54.173Z,101655.39
2019-05-12T13:41:21.991Z,101641.02
2019-05-12T13:43:54.484Z,101652.72
2019-05-12T13:46:19.595Z,101640.11
2019-05-12T13:48:49.900Z,101643.80
2019-05-12T13:51:19.234Z,101653.48
2019-05-12T13:53:50.233Z,101652.46
2019-05-12T13:56:19.441Z,101650.84
2019-05-12T13:58:46.647Z,101650.18
2019-05-12T14:01:19.365Z,101657.81
2019-05-12T14:03:48.652Z,101669.84
2019-05-12T14:06:14.055Z,101668.52
2019-05-12T14:08:41.888Z,101676.89
2019-05-12T14:11:09.641Z,101678.98
2019-05-12T14:13:37.461Z,101678.65
2019-05-12T14:16:06.662Z,101680.30
2019-05-12T14:18:36.344Z,101676.88
2019-05-12T14:21:04.419Z,101687.63
2019-05-12T14:23:34.285Z,101681.52
2019-05-12T14:26:07.438Z,101685.06
2019-05-12T14:28:33.651Z,101688.88
2019-05-12T14:31:01.606Z,101681.16
2019-05-12T14:33:29.898Z,101683.25
2019-05-12T14:35:59.135Z,101694.86
2019-05-12T14:38:29.642Z,101692.69
2019-05-12T14:41:01.251Z,101693.55
2019-05-12T14:43:26.431Z,101691.29
2019-05-12T14:45:54.322Z,101688.99
2019-05-12T14:48:22.174Z,101690.48
2019-05-12T14:50:49.976Z,101680.30
2019-05-12T14:53:17.760Z,101683.73
2019-05-12T14:55:45.532Z,101685.96
2019-05-12T14:58:17.713Z,101688.66
2019-05-12T15:00:44.575Z,101682.25
2019-05-12T15:03:15.758Z,101689.41
2019-05-12T15:05:47.197Z,101681.08
2019-05-12T15:08:14.232Z,101690.25
2019-05-12T15:10:41.830Z,101684.44
2019-05-12T15:13:09.872Z,101693.60
2019-05-12T15:15:37.855Z,101684.42
2019-05-12T15:18:10.024Z,101691.66
2019-05-12T15:20:35.749Z,101691.29
2019-05-12T15:23:03.890Z,101700.34
2019-05-12T15:25:35.503Z,101693.11
2019-05-12T15:28:03.888Z,101702.99
2019-05-12T15:30:33.589Z,101700.22
2019-05-12T15:33:01.286Z,101706.45
2019-05-12T15:35:29.136Z,101705.92
2019-05-12T15:37:57.184Z,101713.81
2019-05-12T15:40:25.246Z,101717.06
2019-05-12T15:42:55.042Z,101718.61
2019-05-12T15:45:23.809Z,101718.50
2019-05-12T15:47:53.503Z,101721.11
2019-05-12T15:50:23.160Z,101721.79
2019-05-12T15:52:51.192Z,101720.12
2019-05-12T15:55:25.625Z,101718.84
2019-05-12T15:57:49.045Z,101726.80
2019-05-12T16:00:17.299Z,101728.23
2019-05-12T16:02:45.215Z,101729.66
2019-05-12T16:05:14.552Z,101734.95
2019-05-12T16:07:43.618Z,101728.30
2019-05-12T16:10:14.477Z,101728.72
2019-05-12T16:12:43.458Z,101739.16
2019-05-12T16:15:17.220Z,101734.63
2019-05-12T16:17:44.011Z,101741.50
2019-05-12T16:20:14.255Z,101735.39
2019-05-12T16:22:45.196Z,101727.65
2019-05-12T16:25:14.820Z,101730.69
2019-05-12T16:27:44.417Z,101730.33
2019-05-12T16:30:13.840Z,101739.20
2019-05-12T16:32:46.980Z,101737.19
2019-05-12T16:35:14.116Z,101736.20
2019-05-12T16:37:43.964Z,101743.99
2019-05-12T16:40:13.737Z,101744.31
2019-05-12T16:42:48.096Z,101736.33
2019-05-12T16:45:13.931Z,101751.87
2019-05-12T16:47:41.642Z,101750.77
2019-05-12T16:50:15.194Z,101744.88
2019-05-12T16:52:40.825Z,101750.19
2019-05-12T16:55:09.598Z,101754.69
2019-05-12T16:57:47.520Z,101755.94
2019-05-12T17:00:07.748Z,101757.13
2019-05-12T17:02:41.329Z,101758.09
2019-05-12T17:05:14.849Z,101758.66
2019-05-12T17:07:36.396Z,101764.73
2019-05-12T17:10:11.758Z,101766.56
2019-05-12T17:12:37.088Z,101759.79
2019-05-12T17:15:04.406Z,101768.19
2019-05-12T17:17:33.759Z,101763.98
2019-05-12T17:20:01.717Z,101765.97
2019-05-12T17:22:29.466Z,101766.27
2019-05-12T17:24:57.320Z,101777.71
2019-05-12T17:27:27.306Z,101776.50
2019-05-12T17:29:54.838Z,101784.12
2019-05-12T17:32:26.075Z,101783.30
2019-05-12T17:34:53.843Z,101785.53
2019-05-12T17:37:23.764Z,101783.59
2019-05-12T17:39:51.277Z,101787.19
2019-05-12T17:42:21.379Z,101778.30
2019-05-12T17:44:48.945Z,101782.22
2019-05-12T17:47:24.174Z,101787.25
2019-05-12T17:49:50.007Z,101793.34
2019-05-12T17:52:18.777Z,101796.36
2019-05-12T17:54:46.671Z,101802.16
2019-05-12T17:57:18.423Z,101800.17
2019-05-12T17:59:44.817Z,101797.86
2019-05-12T18:02:16.708Z,101807.61
2019-05-12T18:04:43.743Z,101818.64
2019-05-12T18:07:17.401Z,101819.71
2019-05-12T18:09:44.023Z,101816.59
2019-05-12T18:12:13.684Z,101821.38
2019-05-12T18:14:46.804Z,101826.05
2019-05-12T18:17:11.060Z,101830.97
2019-05-12T18:19:38.928Z,101829.40
2019-05-12T18:22:09.382Z,101831.70
2019-05-12T18:24:40.846Z,101848.70
2019-05-12T18:27:07.729Z,101848.58
2019-05-12T18:29:35.794Z,101850.86
2019-05-12T18:32:04.952Z,101853.25
2019-05-12T18:34:34.009Z,101862.17
2019-05-12T18:37:01.995Z,101858.26
2019-05-12T18:39:29.823Z,101866.95
2019-05-12T18:41:57.676Z,101876.89
2019-05-12T18:44:31.137Z,101872.36
2019-05-12T18:46:55.318Z,101881.27
2019-05-12T18:49:23.932Z,101889.16
2019-05-12T18:51:55.259Z,101892.14
2019-05-12T18:54:24.282Z,101897.27
2019-05-12T18:57:01.921Z,101901.66
2019-05-12T18:59:21.478Z,101907.72
2019-05-12T19:01:49.309Z,101909.88
2019-05-12T19:04:17.218Z,101913.25
2019-05-12T19:06:45.035Z,101921.48
2019-05-12T19:09:13.764Z,101918.36
2019-05-12T19:11:45.773Z,101922.92
2019-05-12T19:14:13.444Z,101930.22
2019-05-12T19:16:43.249Z,101928.40
2019-05-12T19:19:18.414Z,101935.26
2019-05-12T19:21:40.842Z,101935.61
2019-05-12T19:24:14.282Z,101944.77
2019-05-12T19:26:40.352Z,101955.72
2019-05-12T19:29:08.196Z,101957.45
2019-05-12T19:31:36.745Z,101957.03
2019-05-12T19:34:18.347Z,101958.50
2019-05-12T19:36:44.798Z,101975.55
2019-05-12T19:39:07.619Z,101980.95
2019-05-12T19:41:36.384Z,101977.36
2019-05-12T19:44:05.132Z,101981.77
2019-05-12T19:46:34.139Z,101986.07
2019-05-12T19:49:04.301Z,101985.88
2019-05-12T19:51:31.774Z,101985.52
2019-05-12T19:53:59.634Z,101991.27
2019-05-12T19:56:34.583Z,101994.25
2019-05-12T19:58:57.158Z,101994.25
2019-05-12T20:01:32.236Z,101994.51
2019-05-12T20:03:55.526Z,101997.28
2019-05-12T20:06:24.541Z,101996.80
2019-05-12T20:08:54.071Z,101998.22
2019-05-12T20:11:29.300Z,102002.09
2019-05-12T20:13:53.815Z,102000.17
2019-05-12T20:16:24.609Z,102003.84
2019-05-12T20:18:55.070Z,102000.89
2019-05-12T20:21:26.042Z,102004.69
2019-05-12T20:23:50.684Z,102006.27
2019-05-12T20:26:18.543Z,102015.03
2019-05-12T20:28:50.596Z,102014.95
2019-05-12T20:31:16.055Z,102022.19
2019-05-12T20:33:43.895Z,102024.67
2019-05-12T20:36:14.118Z,102022.00
2019-05-12T20:38:41.543Z,102030.09
2019-05-12T20:41:10.989Z,102031.66
2019-05-12T20:43:41.270Z,102030.58
2019-05-12T20:46:15.442Z,102033.58
2019-05-12T20:48:38.639Z,102035.80
2019-05-12T20:51:08.615Z,102033.97
2019-05-12T20:53:37.021Z,102037.31
2019-05-12T20:56:04.917Z,102035.90
2019-05-12T20:58:35.253Z,102038.69
2019-05-12T21:01:05.177Z,102042.44
2019-05-12T21:03:33.580Z,102044.73
2019-05-12T21:06:04.167Z,102048.14
2019-05-12T21:08:31.266Z,102046.84
2019-05-12T21:10:59.079Z,102051.69
2019-05-12T21:13:31.674Z,102058.17
2019-05-12T21:15:56.706Z,102055.19
2019-05-12T21:18:24.612Z,102056.05
2019-05-12T21:20:54.712Z,102060.47
2019-05-12T21:23:24.097Z,102064.21
2019-05-12T21:25:55.874Z,102069.97
2019-05-12T21:28:23.660Z,102072.19
2019-05-12T21:30:53.066Z,102072.10
2019-05-12T21:33:21.041Z,102069.41
2019-05-12T21:35:48.882Z,102078.53
2019-05-12T21:38:18.936Z,102079.89
2019-05-12T21:40:46.436Z,102076.21
2019-05-12T21:43:14.307Z,102073.16
2019-05-12T21:45:42.134Z,102080.30
2019-05-12T21:48:15.205Z,102087.92
2019-05-12T21:50:39.648Z,102079.88
2019-05-12T21:53:10.321Z,102084.09
2019-05-12T21:55:37.259Z,102087.64
2019-05-12T21:58:10.596Z,102103.80
2019-05-12T22:00:41.510Z,102095.56
2019-05-12T22:03:14.709Z,102099.95
2019-05-12T22:05:50.617Z,102102.67
2019-05-12T22:08:17.273Z,102103.86
2019-05-12T22:10:40.416Z,102111.09
2019-05-12T22:13:14.433Z,102106.71
2019-05-12T22:15:38.302Z,102115.31
2019-05-12T22:18:06.126Z,102111.44
2019-05-12T22:20:35.070Z,102115.63
2019-05-12T22:23:11.816Z,102114.80
2019-05-12T22:25:34.497Z,102122.20
2019-05-12T22:28:05.376Z,102129.93
2019-05-12T22:30:34.569Z,102121.84
2019-05-12T22:33:08.590Z,102119.83
2019-05-12T22:35:33.634Z,102117.29
2019-05-12T22:38:03.915Z,102119.83
2019-05-12T22:40:31.262Z,102128.22
2019-05-12T22:43:01.243Z,102120.65
2019-05-12T22:45:28.780Z,102126.05
2019-05-12T22:47:59.060Z,102125.53
2019-05-12T22:50:27.118Z,102134.09
2019-05-12T22:52:56.030Z,102132.25
2019-05-12T22:55:30.752Z,102130.88
2019-05-12T22:57:53.613Z,102139.64
2019-05-12T23:00:24.240Z,102138.62
2019-05-12T23:02:53.687Z,102147.16
2019-05-12T23:05:21.586Z,102147.64
2019-05-12T23:07:49.446Z,102147.50
2019-05-12T23:10:17.249Z,102153.89
2019-05-12T23:12:45.055Z,102161.75
2019-05-12T23:15:13.786Z,102154.17
2019-05-12T23:17:45.191Z,102171.99
2019-05-12T23:20:13.810Z,102168.28
2019-05-12T23:22:43.674Z,102171.61
2019-05-12T23:25:19.508Z,102170.59
2019-05-12T23:27:44.047Z,102171.22
2019-05-12T23:30:12.781Z,102173.88
2019-05-12T23:32:42.914Z,102178.24
2019-05-12T23:35:10.492Z,102176.41
2019-05-12T23:37:40.135Z,102180.05
2019-05-12T23:40:11.530Z,102179.31
2019-05-12T23:42:37.983Z,102180.78
2019-05-12T23:45:06.037Z,102178.05
2019-05-12T23:47:34.423Z,102180.86
2019-05-12T23:50:04.046Z,102190.91
2019-05-12T23:52:34.491Z,102191.55
2019-05-12T23:55:01.745Z,102183.77
2019-05-12T23:57:29.681Z,102190.98
2019-05-12T23:59:57.481Z,102185.56
